createdAt,value
2022-08-14T00:01:03.100Z,77.86
2022-08-14T00:03:37.574Z,77.38
2022-08-14T00:06:25.332Z,76.61
2022-08-14T00:08:53.403Z,75.80
2022-08-14T00:11:19.916Z,75.61
2022-08-14T00:13:52.794Z,75.30
2022-08-14T00:16:41.434Z,75.34
2022-08-14T00:19:18.529Z,75.50
2022-08-14T00:21:47.085Z,75.15
2022-08-14T00:24:13.628Z,74.80
2022-08-14T00:26:52.637Z,74.59
2022-08-14T00:29:21.419Z,74.17
2022-08-14T00:31:55.931Z,74.10
2022-08-14T00:34:37.188Z,74.24
2022-08-14T00:37:10.645Z,73.85
2022-08-14T00:39:37.231Z,73.81
2022-08-14T00:42:04.886Z,74.13
2022-08-14T00:44:33.303Z,74.09
2022-08-14T00:47:10.962Z,73.57
2022-08-14T00:49:43.127Z,73.45
2022-08-14T00:52:14.226Z,73.37
2022-08-14T00:54:44.642Z,73.47
2022-08-14T00:57:12.327Z,73.19
2022-08-14T00:59:39.469Z,73.77
2022-08-14T01:02:09.537Z,73.68
2022-08-14T01:04:53.379Z,73.33
2022-08-14T01:07:22.935Z,75.31
2022-08-14T01:10:05.188Z,74.30
2022-08-14T01:12:33.626Z,74.41
2022-08-14T01:15:09.417Z,74.44
2022-08-14T01:17:59.577Z,73.69
2022-08-14T01:20:46.507Z,75.97
2022-08-14T01:23:18.877Z,75.88
2022-08-14T01:25:48.611Z,75.06
2022-08-14T01:28:34.207Z,74.93
2022-08-14T01:31:03.353Z,74.65
2022-08-14T01:33:30.770Z,75.95
2022-08-14T01:36:23.065Z,75.47
2022-08-14T01:38:51.142Z,75.77
2022-08-14T01:41:23.006Z,75.70
2022-08-14T01:44:01.438Z,75.42
2022-08-14T01:46:37.171Z,75.33
2022-08-14T01:49:08.072Z,76.41
2022-08-14T01:51:35.127Z,77.07
2022-08-14T01:54:14.428Z,76.24
2022-08-14T01:56:41.222Z,76.41
2022-08-14T01:59:37.853Z,76.18
2022-08-14T02:02:14.687Z,76.17
2022-08-14T02:04:56.755Z,75.85
2022-08-14T02:07:27.316Z,77.00
2022-08-14T02:10:15.983Z,76.85
2022-08-14T02:12:43.408Z,77.38
2022-08-14T02:15:10.654Z,76.77
2022-08-14T02:17:37.857Z,76.78
2022-08-14T02:20:08.452Z,76.92
2022-08-14T02:22:34.926Z,77.93
2022-08-14T02:25:16.631Z,77.28
2022-08-14T02:28:22.753Z,76.89
2022-08-14T02:30:33.697Z,77.70
2022-08-14T02:33:01.166Z,77.78
2022-08-14T02:35:32.968Z,77.74
2022-08-14T02:37:59.985Z,77.08
2022-08-14T02:40:32.324Z,76.95
2022-08-14T02:43:02.779Z,77.46
2022-08-14T02:45:38.633Z,77.15
2022-08-14T02:49:04.970Z,77.56
2022-08-14T02:51:01.002Z,77.78
2022-08-14T02:53:28.182Z,77.84
2022-08-14T02:55:56.311Z,78.13
2022-08-14T02:58:30.938Z,78.69
2022-08-14T03:00:58.667Z,78.75
2022-08-14T03:03:25.451Z,78.93
2022-08-14T03:05:52.774Z,78.84
2022-08-14T03:08:21.559Z,79.04
2022-08-14T03:10:49.086Z,79.16
2022-08-14T03:13:21.559Z,79.44
2022-08-14T03:15:56.085Z,79.83
2022-08-14T03:18:30.884Z,80.04
2022-08-14T03:21:05.198Z,80.49
2022-08-14T03:23:37.728Z,80.63
2022-08-14T03:26:07.034Z,81.26
2022-08-14T03:28:34.367Z,81.07
2022-08-14T03:31:04.203Z,81.31
2022-08-14T03:33:37.493Z,81.31
2022-08-14T03:37:37.718Z,81.38
2022-08-14T03:39:15.075Z,81.55
2022-08-14T03:41:45.043Z,81.62
2022-08-14T03:45:25.748Z,81.91
2022-08-14T03:46:58.077Z,82.05
2022-08-14T03:49:29.507Z,82.00
2022-08-14T03:52:00.420Z,82.34
2022-08-14T03:54:28.189Z,82.35
2022-08-14T03:56:54.942Z,82.50
2022-08-14T03:59:21.463Z,82.55
2022-08-14T04:01:57.851Z,82.79
2022-08-14T04:04:30.299Z,82.65
2022-08-14T04:06:58.820Z,82.57
2022-08-14T04:09:26.598Z,82.79
2022-08-14T04:11:53.859Z,82.80
2022-08-14T04:14:20.499Z,82.65
2022-08-14T04:16:47.904Z,82.62
2022-08-14T04:19:19.888Z,82.63
2022-08-14T04:22:02.282Z,82.80
2022-08-14T04:24:37.804Z,83.39
2022-08-14T04:27:09.845Z,83.67
2022-08-14T04:29:42.370Z,84.26
2022-08-14T04:33:00.794Z,84.28
2022-08-14T04:34:57.143Z,84.49
2022-08-14T04:37:43.179Z,84.76
2022-08-14T04:40:31.343Z,84.71
2022-08-14T04:43:17.218Z,84.42
2022-08-14T04:45:44.115Z,84.43
2022-08-14T04:48:39.434Z,84.24
2022-08-14T04:51:05.618Z,83.92
2022-08-14T04:53:35.394Z,83.92
2022-08-14T04:56:03.429Z,83.75
2022-08-14T04:58:38.181Z,83.78
2022-08-14T05:01:12.759Z,83.66
2022-08-14T05:03:44.444Z,83.60
2022-08-14T05:06:38.043Z,83.46
2022-08-14T05:09:00.138Z,83.98
2022-08-14T05:11:27.298Z,83.70
2022-08-14T05:14:33.084Z,83.34
2022-08-14T05:16:44.153Z,83.29
2022-08-14T05:19:19.016Z,83.26
2022-08-14T05:22:16.737Z,83.24
2022-08-14T05:24:49.754Z,83.12
2022-08-14T05:27:20.009Z,83.13
2022-08-14T05:29:49.828Z,82.96
2022-08-14T05:32:16.443Z,82.59
2022-08-14T05:34:45.713Z,82.73
2022-08-14T05:37:13.018Z,82.57
2022-08-14T05:39:42.501Z,82.76
2022-08-14T05:42:10.048Z,81.66
2022-08-14T05:44:49.189Z,81.14
2022-08-14T05:47:17.422Z,80.55
2022-08-14T05:49:46.059Z,80.25
2022-08-14T05:52:12.750Z,79.66
2022-08-14T05:54:44.811Z,78.94
2022-08-14T05:57:11.443Z,77.58
2022-08-14T05:59:39.723Z,77.09
2022-08-14T06:02:10.555Z,76.96
2022-08-14T06:04:38.604Z,76.66
2022-08-14T06:07:05.667Z,75.74
2022-08-14T06:09:35.796Z,75.25
2022-08-14T06:12:10.725Z,74.19
2022-08-14T06:14:38.733Z,74.69
2022-08-14T06:17:05.533Z,75.62
2022-08-14T06:19:31.928Z,76.08
2022-08-14T06:21:59.473Z,74.03
2022-08-14T06:24:26.651Z,71.99
2022-08-14T06:26:56.907Z,72.28
2022-08-14T06:29:32.154Z,70.82
2022-08-14T06:32:00.237Z,69.36
2022-08-14T06:35:03.560Z,68.72
2022-08-14T06:37:51.938Z,68.46
2022-08-14T06:40:26.215Z,66.45
2022-08-14T06:43:03.642Z,66.88
2022-08-14T06:45:31.285Z,64.06
2022-08-14T06:47:58.774Z,64.08
2022-08-14T06:50:28.648Z,63.12
2022-08-14T06:52:58.385Z,61.94
2022-08-14T06:55:28.186Z,56.00
2022-08-14T06:57:57.781Z,51.82
2022-08-14T07:00:31.231Z,50.92
2022-08-14T07:03:17.530Z,48.89
2022-08-14T07:05:55.369Z,47.27
2022-08-14T07:08:26.622Z,45.37
2022-08-14T07:10:59.968Z,45.32
2022-08-14T07:13:28.247Z,45.12
2022-08-14T07:15:56.411Z,45.91
2022-08-14T07:18:32.823Z,44.95
2022-08-14T07:21:00.775Z,44.63
2022-08-14T07:23:27.385Z,45.26
2022-08-14T07:25:58.421Z,43.13
2022-08-14T07:28:33.144Z,42.04
2022-08-14T07:31:04.376Z,40.60
2022-08-14T07:33:50.409Z,40.55
2022-08-14T07:36:27.073Z,41.00
2022-08-14T07:38:57.466Z,40.93
2022-08-14T07:41:24.055Z,40.37
2022-08-14T07:43:55.702Z,41.12
2022-08-14T07:46:29.499Z,40.06
2022-08-14T07:48:58.086Z,39.73
2022-08-14T07:51:24.558Z,40.11
2022-08-14T07:53:57.149Z,40.15
2022-08-14T07:56:47.557Z,39.24
2022-08-14T07:59:10.570Z,36.96
2022-08-14T08:01:39.429Z,37.38
2022-08-14T08:04:18.799Z,37.50
2022-08-14T08:06:52.421Z,38.42
2022-08-14T08:09:24.590Z,37.22
2022-08-14T08:12:00.534Z,36.56
2022-08-14T08:14:27.728Z,37.94
2022-08-14T08:16:56.362Z,35.98
2022-08-14T08:19:23.898Z,36.13
2022-08-14T08:21:50.778Z,35.42
2022-08-14T08:24:19.894Z,36.10
2022-08-14T08:26:47.722Z,37.09
2022-08-14T08:29:22.506Z,37.88
2022-08-14T08:31:54.910Z,37.12
2022-08-14T08:34:23.673Z,36.62
2022-08-14T08:36:51.484Z,35.47
2022-08-14T08:39:22.737Z,36.13
2022-08-14T08:41:53.401Z,35.52
2022-08-14T08:44:31.865Z,34.25
2022-08-14T08:47:05.059Z,33.38
2022-08-14T08:49:43.111Z,35.18
2022-08-14T08:52:25.142Z,34.52
2022-08-14T08:54:55.969Z,34.21
2022-08-14T08:57:22.349Z,33.85
2022-08-14T08:59:55.299Z,33.68
2022-08-14T09:02:26.182Z,34.02
2022-08-14T09:05:03.637Z,32.64
2022-08-14T09:07:31.231Z,32.57
2022-08-14T09:10:00.049Z,31.79
2022-08-14T09:12:29.817Z,30.76
2022-08-14T09:15:11.403Z,31.47
2022-08-14T09:17:42.833Z,34.35
2022-08-14T09:20:11.574Z,31.24
2022-08-14T09:22:42.642Z,30.94
2022-08-14T09:25:16.072Z,31.46
2022-08-14T09:27:42.812Z,31.03
2022-08-14T09:30:30.573Z,31.86
2022-08-14T09:33:09.139Z,32.07
2022-08-14T09:36:00.394Z,31.05
2022-08-14T09:39:03.544Z,31.70
2022-08-14T09:42:21.890Z,32.20
2022-08-14T09:45:07.813Z,30.33
2022-08-14T09:47:52.081Z,30.20
2022-08-14T09:50:29.913Z,29.25
2022-08-14T09:53:03.212Z,30.35
2022-08-14T09:55:42.569Z,31.59
2022-08-14T09:58:20.024Z,32.21
2022-08-14T10:00:53.915Z,27.43
2022-08-14T10:03:33.888Z,30.02
2022-08-14T10:06:13.592Z,30.43
2022-08-14T10:08:53.026Z,29.96
2022-08-14T10:11:25.522Z,26.95
2022-08-14T10:14:29.391Z,28.26
2022-08-14T10:17:02.508Z,26.20
2022-08-14T10:19:31.480Z,27.19
2022-08-14T10:23:13.328Z,27.37
2022-08-14T10:25:10.078Z,28.24
2022-08-14T10:27:36.820Z,24.96
2022-08-14T10:30:12.326Z,26.03
2022-08-14T10:32:51.243Z,27.37
2022-08-14T10:35:22.511Z,25.91
2022-08-14T10:37:52.255Z,26.30
2022-08-14T10:40:37.678Z,26.56
2022-08-14T10:43:26.229Z,27.13
2022-08-14T10:46:03.767Z,24.72
2022-08-14T10:49:02.595Z,25.81
2022-08-14T10:51:36.270Z,23.89
2022-08-14T10:54:35.509Z,23.43
2022-08-14T10:56:55.751Z,23.72
2022-08-14T10:59:23.389Z,23.31
2022-08-14T11:01:59.931Z,23.56
2022-08-14T11:04:30.335Z,25.65
2022-08-14T11:06:57.854Z,21.92
2022-08-14T11:09:26.235Z,21.21
2022-08-14T11:12:36.043Z,24.27
2022-08-14T11:14:50.977Z,21.90
2022-08-14T11:17:32.156Z,20.85
2022-08-14T11:20:01.229Z,20.65
2022-08-14T11:22:52.539Z,21.42
2022-08-14T11:25:20.386Z,20.70
2022-08-14T11:27:49.145Z,20.26
2022-08-14T11:30:49.894Z,21.26
2022-08-14T11:33:09.067Z,20.19
2022-08-14T11:35:47.408Z,21.98
2022-08-14T11:38:16.436Z,23.62
2022-08-14T11:40:47.070Z,20.89
2022-08-14T11:43:14.896Z,20.63
2022-08-14T11:45:47.610Z,21.25
2022-08-14T11:49:04.126Z,21.08
2022-08-14T11:51:12.752Z,21.10
2022-08-14T11:53:42.009Z,22.44
2022-08-14T11:56:08.631Z,20.07
2022-08-14T11:58:38.552Z,19.77
2022-08-14T12:01:08.120Z,19.74
2022-08-14T12:03:51.217Z,19.09
2022-08-14T12:06:28.619Z,20.42
2022-08-14T12:09:02.513Z,19.21
2022-08-14T12:11:43.302Z,19.45
2022-08-14T12:14:30.949Z,19.58
2022-08-14T12:17:09.465Z,19.02
2022-08-14T12:19:51.460Z,19.71
2022-08-14T12:22:32.346Z,20.27
2022-08-14T12:24:58.781Z,21.04
2022-08-14T12:27:53.498Z,25.00
2022-08-14T12:30:39.812Z,22.86
2022-08-14T12:33:33.792Z,21.45
2022-08-14T12:36:09.807Z,20.32
2022-08-14T12:38:43.972Z,19.92
2022-08-14T12:41:20.398Z,20.10
2022-08-14T12:44:01.693Z,21.29
2022-08-14T12:46:46.687Z,19.65
2022-08-14T12:49:16.994Z,19.97
2022-08-14T12:51:55.650Z,23.02
2022-08-14T12:54:28.286Z,23.21
2022-08-14T12:57:07.994Z,25.27
2022-08-14T12:59:37.209Z,28.10
2022-08-14T13:02:21.680Z,26.11
2022-08-14T13:04:55.478Z,26.95
2022-08-14T13:07:21.934Z,28.92
2022-08-14T13:09:56.002Z,27.18
2022-08-14T13:12:34.867Z,29.58
2022-08-14T13:15:14.907Z,31.35
2022-08-14T13:17:51.193Z,31.80
2022-08-14T13:20:24.200Z,31.64
2022-08-14T13:22:54.813Z,30.65
2022-08-14T13:25:27.584Z,31.80
2022-08-14T13:27:57.589Z,31.15
2022-08-14T13:30:25.995Z,33.85
2022-08-14T13:32:54.351Z,34.00
2022-08-14T13:35:22.572Z,35.52
2022-08-14T13:37:52.282Z,33.59
2022-08-14T13:40:26.304Z,32.39
2022-08-14T13:42:55.278Z,36.99
2022-08-14T13:45:33.924Z,34.68
2022-08-14T13:48:32.207Z,33.90
2022-08-14T13:50:59.260Z,34.85
2022-08-14T13:53:33.324Z,36.46
2022-08-14T13:56:03.841Z,38.76
2022-08-14T13:58:34.593Z,37.56
2022-08-14T14:01:02.562Z,40.80
2022-08-14T14:03:35.143Z,38.15
2022-08-14T14:06:02.851Z,37.53
2022-08-14T14:08:46.157Z,39.03
2022-08-14T14:11:16.428Z,38.09
2022-08-14T14:13:45.717Z,39.00
2022-08-14T14:16:15.002Z,39.36
2022-08-14T14:18:43.805Z,38.18
2022-08-14T14:21:14.038Z,38.79
2022-08-14T14:23:42.810Z,35.29
2022-08-14T14:26:14.080Z,32.57
2022-08-14T14:28:42.647Z,33.94
2022-08-14T14:31:11.432Z,34.72
2022-08-14T14:33:47.324Z,33.38
2022-08-14T14:36:20.970Z,35.42
2022-08-14T14:39:10.609Z,36.91
2022-08-14T14:41:43.757Z,40.98
2022-08-14T14:44:13.501Z,38.67
2022-08-14T14:46:43.403Z,41.23
2022-08-14T14:49:14.196Z,39.36
2022-08-14T14:51:44.376Z,37.77
2022-08-14T14:54:17.206Z,41.79
2022-08-14T14:56:50.244Z,39.89
2022-08-14T14:59:18.574Z,39.77
2022-08-14T15:01:50.593Z,39.69
2022-08-14T15:04:19.794Z,39.75
2022-08-14T15:06:48.236Z,41.67
2022-08-14T15:09:17.826Z,42.67
2022-08-14T15:11:47.053Z,41.21
2022-08-14T15:14:56.697Z,39.33
2022-08-14T15:17:01.128Z,37.10
2022-08-14T15:19:27.533Z,38.15
2022-08-14T15:21:55.283Z,38.10
2022-08-14T15:24:26.489Z,40.87
2022-08-14T15:26:56.139Z,41.38
2022-08-14T15:29:22.776Z,37.62
2022-08-14T15:31:51.553Z,40.48
2022-08-14T15:34:43.155Z,41.66
2022-08-14T15:37:10.920Z,43.75
2022-08-14T15:39:41.459Z,46.11
2022-08-14T15:42:15.971Z,44.45
2022-08-14T15:44:58.095Z,41.74
2022-08-14T15:47:32.170Z,43.86
2022-08-14T15:50:04.687Z,43.33
2022-08-14T15:52:45.203Z,46.08
2022-08-14T15:55:15.449Z,39.15
2022-08-14T15:58:02.186Z,39.08
2022-08-14T16:00:51.940Z,36.89
2022-08-14T16:03:27.878Z,35.61
2022-08-14T16:06:15.285Z,40.12
2022-08-14T16:08:50.273Z,41.56
2022-08-14T16:11:26.035Z,41.99
2022-08-14T16:13:52.521Z,44.13
2022-08-14T16:16:49.115Z,45.10
2022-08-14T16:19:18.055Z,46.23
2022-08-14T16:22:02.691Z,45.71
2022-08-14T16:24:35.966Z,48.16
2022-08-14T16:27:39.478Z,47.33
2022-08-14T16:30:24.982Z,45.21
2022-08-14T16:32:57.057Z,45.23
2022-08-14T16:35:42.966Z,46.50
2022-08-14T16:38:46.435Z,46.59
2022-08-14T16:41:25.545Z,47.16
2022-08-14T16:44:04.910Z,45.84
2022-08-14T16:46:38.405Z,47.95
2022-08-14T16:49:14.167Z,49.05
2022-08-14T16:51:41.115Z,47.20
2022-08-14T16:54:34.497Z,47.07
2022-08-14T16:57:20.808Z,48.36
2022-08-14T16:59:52.216Z,49.09
2022-08-14T17:02:43.696Z,48.76
2022-08-14T17:05:15.608Z,51.43
2022-08-14T17:08:02.198Z,48.92
2022-08-14T17:10:29.151Z,48.63
2022-08-14T17:13:58.556Z,49.67
2022-08-14T17:16:24.662Z,48.23
2022-08-14T17:19:00.109Z,50.23
2022-08-14T17:21:41.028Z,50.68
2022-08-14T17:24:56.933Z,51.09
2022-08-14T17:26:59.892Z,52.34
2022-08-14T17:29:32.611Z,54.41
2022-08-14T17:32:28.328Z,53.25
2022-08-14T17:34:54.380Z,53.53
2022-08-14T17:37:34.294Z,54.70
2022-08-14T17:40:15.340Z,53.58
2022-08-14T17:42:55.680Z,54.56
2022-08-14T17:45:41.685Z,54.69
2022-08-14T17:49:15.249Z,52.29
2022-08-14T17:51:14.140Z,52.15
2022-08-14T17:53:53.375Z,52.93
2022-08-14T17:56:20.694Z,53.57
2022-08-14T17:58:49.355Z,54.75
2022-08-14T18:01:17.420Z,54.24
2022-08-14T18:03:53.606Z,55.76
2022-08-14T18:06:38.235Z,57.57
2022-08-14T18:09:08.435Z,57.46
2022-08-14T18:11:58.326Z,55.04
2022-08-14T18:14:31.980Z,56.86
2022-08-14T18:17:00.882Z,59.37
2022-08-14T18:19:29.886Z,58.54
2022-08-14T18:21:58.969Z,58.70
2022-08-14T18:24:30.069Z,59.51
2022-08-14T18:27:08.887Z,58.28
2022-08-14T18:29:42.668Z,58.37
2022-08-14T18:32:27.308Z,58.30
2022-08-14T18:35:45.313Z,57.94
2022-08-14T18:38:26.036Z,59.36
2022-08-14T18:41:36.814Z,60.21
2022-08-14T18:44:11.072Z,60.98
2022-08-14T18:47:14.676Z,59.93
2022-08-14T18:49:57.958Z,61.57
2022-08-14T18:52:33.398Z,62.19
2022-08-14T18:55:16.039Z,62.19
2022-08-14T18:57:58.503Z,62.25
2022-08-14T19:00:39.780Z,64.23
2022-08-14T19:03:11.175Z,64.72
2022-08-14T19:05:41.115Z,64.75
2022-08-14T19:08:17.200Z,63.07
2022-08-14T19:10:54.622Z,64.00
2022-08-14T19:13:27.855Z,65.21
2022-08-14T19:16:16.980Z,66.27
2022-08-14T19:19:06.813Z,65.31
2022-08-14T19:21:55.717Z,66.03
2022-08-14T19:24:44.311Z,66.39
2022-08-14T19:27:24.510Z,66.11
2022-08-14T19:30:20.514Z,66.29
2022-08-14T19:32:50.617Z,67.45
2022-08-14T19:35:23.455Z,67.53
2022-08-14T19:37:54.058Z,67.29
2022-08-14T19:40:33.985Z,66.97
2022-08-14T19:43:01.916Z,67.29
2022-08-14T19:45:30.217Z,67.58
2022-08-14T19:48:00.719Z,68.37
2022-08-14T19:50:40.881Z,68.92
2022-08-14T19:53:11.464Z,68.72
2022-08-14T19:55:45.817Z,68.66
2022-08-14T19:58:12.980Z,69.09
2022-08-14T20:00:52.160Z,68.87
2022-08-14T20:03:23.368Z,69.01
2022-08-14T20:06:01.347Z,69.15
2022-08-14T20:09:05.179Z,69.34
2022-08-14T20:12:02.005Z,68.82
2022-08-14T20:14:27.988Z,69.69
2022-08-14T20:17:06.106Z,69.63
2022-08-14T20:19:37.439Z,70.21
2022-08-14T20:22:37.045Z,70.83
2022-08-14T20:24:56.572Z,71.16
2022-08-14T20:27:44.356Z,70.95
2022-08-14T20:30:34.513Z,72.13
2022-08-14T20:33:11.170Z,72.57
2022-08-14T20:35:52.326Z,72.48
2022-08-14T20:38:31.232Z,72.78
2022-08-14T20:41:06.848Z,74.09
2022-08-14T20:43:57.842Z,74.11
2022-08-14T20:46:31.661Z,75.20
2022-08-14T20:49:01.213Z,74.49
2022-08-14T20:51:54.497Z,74.35
2022-08-14T20:54:36.272Z,75.25
2022-08-14T20:57:15.739Z,75.01
2022-08-14T20:59:57.194Z,75.95
2022-08-14T21:02:49.751Z,75.74
2022-08-14T21:05:22.481Z,76.39
2022-08-14T21:08:08.356Z,76.44
2022-08-14T21:10:48.258Z,76.32
2022-08-14T21:13:27.560Z,76.75
2022-08-14T21:16:32.959Z,76.51
2022-08-14T21:18:56.917Z,76.41
2022-08-14T21:21:40.541Z,77.07
2022-08-14T21:24:07.992Z,76.98
2022-08-14T21:26:52.427Z,76.92
2022-08-14T21:29:23.342Z,77.35
2022-08-14T21:31:55.922Z,77.63
2022-08-14T21:34:27.518Z,77.76
2022-08-14T21:37:07.740Z,77.42
2022-08-14T21:39:35.829Z,77.44
2022-08-14T21:42:04.675Z,77.41
2022-08-14T21:44:42.583Z,78.01
2022-08-14T21:47:12.396Z,77.89
2022-08-14T21:49:40.104Z,77.88
2022-08-14T21:52:49.094Z,79.06
2022-08-14T21:55:09.688Z,76.22
2022-08-14T21:57:53.531Z,77.06
2022-08-14T22:00:36.032Z,77.28
2022-08-14T22:03:09.030Z,77.50
2022-08-14T22:05:38.729Z,77.59
2022-08-14T22:08:06.646Z,77.77
2022-08-14T22:10:33.997Z,77.58
2022-08-14T22:13:01.731Z,77.72
2022-08-14T22:15:29.995Z,77.74
2022-08-14T22:17:58.024Z,77.35
2022-08-14T22:20:29.167Z,77.48
2022-08-14T22:23:00.804Z,77.92
2022-08-14T22:25:32.914Z,77.08
2022-08-14T22:28:02.968Z,77.29
2022-08-14T22:30:30.472Z,77.34
2022-08-14T22:33:00.023Z,77.70
2022-08-14T22:35:27.473Z,77.72
2022-08-14T22:38:34.783Z,77.49
2022-08-14T22:41:03.648Z,78.63
2022-08-14T22:43:31.769Z,79.29
2022-08-14T22:46:02.473Z,79.65
2022-08-14T22:48:29.782Z,80.22
2022-08-14T22:50:56.406Z,80.06
2022-08-14T22:53:23.803Z,79.91
2022-08-14T22:55:55.775Z,80.46
2022-08-14T22:58:31.470Z,80.43
2022-08-14T23:01:02.447Z,80.31
2022-08-14T23:03:31.202Z,80.41
2022-08-14T23:06:02.252Z,80.33
2022-08-14T23:09:01.369Z,80.16
2022-08-14T23:11:15.925Z,80.11
2022-08-14T23:13:46.265Z,79.98
2022-08-14T23:16:20.295Z,79.63
2022-08-14T23:18:54.086Z,79.21
2022-08-14T23:21:24.088Z,79.46
2022-08-14T23:23:55.023Z,79.58
2022-08-14T23:26:48.303Z,79.73
2022-08-14T23:29:11.413Z,80.18
2022-08-14T23:31:39.389Z,80.37
2022-08-14T23:34:08.746Z,80.72
2022-08-14T23:36:53.943Z,80.55
2022-08-14T23:39:30.173Z,80.99
2022-08-14T23:42:02.548Z,80.91
2022-08-14T23:44:35.240Z,81.33
2022-08-14T23:47:10.785Z,80.89
2022-08-14T23:49:59.995Z,80.94
2022-08-14T23:52:50.401Z,80.31
2022-08-14T23:55:13.064Z,81.14
2022-08-14T23:57:44.030Z,81.56
